createdAt,value
2019-05-09T00:02:21.279Z,10.99
2019-05-09T00:04:53.152Z,10.91
2019-05-09T00:07:23.311Z,10.83
2019-05-09T00:09:53.435Z,10.84
2019-05-09T00:12:23.494Z,10.89
2019-05-09T00:14:53.979Z,10.87
2019-05-09T00:17:23.848Z,10.84
2019-05-09T00:19:55.441Z,10.84
2019-05-09T00:22:25.214Z,10.75
2019-05-09T00:24:54.919Z,10.86
2019-05-09T00:27:24.685Z,10.83
2019-05-09T00:29:54.543Z,10.84
2019-05-09T00:32:26.262Z,10.87
2019-05-09T00:35:04.004Z,11.04
2019-05-09T00:37:53.548Z,10.84
2019-05-09T00:40:24.449Z,10.84
2019-05-09T00:42:55.861Z,10.78
2019-05-09T00:45:33.424Z,10.72
2019-05-09T00:48:03.544Z,10.79
2019-05-09T00:50:34.168Z,10.76
2019-05-09T00:53:04.143Z,10.70
2019-05-09T00:55:33.873Z,10.63
2019-05-09T00:58:04.170Z,10.62
2019-05-09T01:00:34.300Z,10.68
2019-05-09T01:03:04.093Z,10.64
2019-05-09T01:05:34.316Z,10.65
2019-05-09T01:08:04.790Z,10.65
2019-05-09T01:10:34.461Z,10.60
2019-05-09T01:13:04.223Z,10.58
2019-05-09T01:15:34.125Z,10.56
2019-05-09T01:18:04.598Z,10.56
2019-05-09T01:20:34.558Z,10.57
2019-05-09T01:23:04.338Z,10.56
2019-05-09T01:25:34.113Z,10.59
2019-05-09T01:28:03.877Z,10.57
2019-05-09T01:30:33.795Z,10.54
2019-05-09T01:33:13.765Z,10.60
2019-05-09T01:35:43.543Z,10.58
2019-05-09T01:38:14.282Z,10.65
2019-05-09T01:40:44.281Z,10.57
2019-05-09T01:43:14.099Z,10.62
2019-05-09T01:45:47.005Z,10.72
2019-05-09T01:48:19.937Z,10.62
2019-05-09T01:50:49.618Z,10.57
2019-05-09T01:53:21.059Z,10.62
2019-05-09T01:56:00.313Z,10.57
2019-05-09T01:58:34.245Z,10.51
2019-05-09T02:01:06.001Z,10.49
2019-05-09T02:03:35.721Z,10.53
2019-05-09T02:06:05.933Z,10.54
2019-05-09T02:08:35.634Z,10.54
2019-05-09T02:11:05.565Z,10.61
2019-05-09T02:13:35.285Z,10.68
2019-05-09T02:16:09.119Z,10.53
2019-05-09T02:18:44.125Z,10.46
2019-05-09T02:21:14.636Z,10.52
2019-05-09T02:23:44.492Z,10.48
2019-05-09T02:26:14.352Z,10.44
2019-05-09T02:28:44.054Z,10.45
2019-05-09T02:31:16.167Z,10.51
2019-05-09T02:33:45.893Z,10.47
2019-05-09T02:36:18.676Z,10.46
2019-05-09T02:38:48.824Z,10.43
2019-05-09T02:41:19.637Z,10.47
2019-05-09T02:43:50.017Z,10.47
2019-05-09T02:46:21.740Z,10.50
2019-05-09T02:48:51.536Z,10.44
2019-05-09T02:51:21.234Z,10.54
2019-05-09T02:53:51.078Z,10.50
2019-05-09T02:56:20.974Z,10.50
2019-05-09T02:58:59.018Z,10.50
2019-05-09T03:01:30.658Z,10.51
2019-05-09T03:04:00.524Z,10.50
2019-05-09T03:06:30.413Z,10.52
2019-05-09T03:09:01.797Z,10.52
2019-05-09T03:11:31.665Z,10.42
2019-05-09T03:14:01.867Z,10.41
2019-05-09T03:16:31.586Z,10.42
2019-05-09T03:19:01.378Z,10.34
2019-05-09T03:21:38.760Z,10.31
2019-05-09T03:24:09.782Z,10.34
2019-05-09T03:26:39.895Z,10.30
2019-05-09T03:29:11.404Z,10.25
2019-05-09T03:31:42.759Z,10.28
2019-05-09T03:34:12.494Z,10.21
2019-05-09T03:36:42.318Z,10.20
2019-05-09T03:39:12.188Z,10.27
2019-05-09T03:41:42.106Z,10.21
2019-05-09T03:44:11.974Z,10.32
2019-05-09T03:46:47.637Z,10.27
2019-05-09T03:49:21.868Z,10.24
2019-05-09T03:51:51.614Z,10.20
2019-05-09T03:54:21.346Z,10.16
2019-05-09T03:57:10.770Z,10.27
2019-05-09T03:59:40.501Z,10.12
2019-05-09T04:02:10.467Z,10.07
2019-05-09T04:04:40.184Z,10.17
2019-05-09T04:07:09.958Z,10.07
2019-05-09T04:09:39.932Z,10.07
2019-05-09T04:12:09.805Z,10.08
2019-05-09T04:14:40.016Z,10.12
2019-05-09T04:17:11.592Z,10.09
2019-05-09T04:19:41.401Z,10.14
2019-05-09T04:22:11.189Z,10.16
2019-05-09T04:24:41.021Z,10.22
2019-05-09T04:27:12.527Z,10.25
2019-05-09T04:29:42.347Z,10.40
2019-05-09T04:32:12.145Z,10.37
2019-05-09T04:34:42.015Z,10.35
2019-05-09T04:37:12.335Z,10.40
2019-05-09T04:39:42.057Z,10.40
2019-05-09T04:42:11.748Z,10.42
2019-05-09T04:44:43.102Z,10.50
2019-05-09T04:47:12.837Z,10.47
2019-05-09T04:49:45.122Z,10.51
2019-05-09T04:52:13.920Z,10.72
2019-05-09T04:54:43.716Z,10.81
2019-05-09T04:57:13.425Z,11.02
2019-05-09T04:59:43.113Z,11.38
2019-05-09T05:02:20.496Z,11.52
2019-05-09T05:04:50.354Z,11.77
2019-05-09T05:07:20.104Z,11.90
2019-05-09T05:09:49.877Z,11.93
2019-05-09T05:12:19.549Z,12.19
2019-05-09T05:14:49.396Z,11.88
2019-05-09T05:17:19.142Z,11.85
2019-05-09T05:19:49.663Z,12.01
2019-05-09T05:22:28.356Z,12.29
2019-05-09T05:25:00.051Z,12.74
2019-05-09T05:27:29.784Z,12.88
2019-05-09T05:29:59.707Z,12.89
2019-05-09T05:32:43.057Z,12.73
2019-05-09T05:35:32.980Z,13.11
2019-05-09T05:38:02.680Z,13.28
2019-05-09T05:40:33.909Z,13.20
2019-05-09T05:43:03.830Z,13.40
2019-05-09T05:45:37.381Z,12.98
2019-05-09T05:48:14.142Z,13.08
2019-05-09T05:50:43.935Z,13.18
2019-05-09T05:53:13.644Z,12.97
2019-05-09T05:55:43.378Z,12.99
2019-05-09T05:58:13.134Z,13.07
2019-05-09T06:00:42.930Z,12.79
2019-05-09T06:03:12.679Z,12.79
2019-05-09T06:05:42.441Z,12.50
2019-05-09T06:08:12.171Z,12.24
2019-05-09T06:10:41.947Z,12.26
2019-05-09T06:13:11.738Z,12.02
2019-05-09T06:15:41.790Z,12.11
2019-05-09T06:18:11.545Z,12.19
2019-05-09T06:20:41.618Z,12.39
2019-05-09T06:23:11.374Z,13.26
2019-05-09T06:25:41.117Z,14.03
2019-05-09T06:28:10.792Z,14.04
2019-05-09T06:30:41.326Z,14.15
2019-05-09T06:33:11.326Z,14.74
2019-05-09T06:35:41.016Z,15.51
2019-05-09T06:38:10.880Z,15.36
2019-05-09T06:40:40.798Z,14.32
2019-05-09T06:43:18.347Z,13.93
2019-05-09T06:46:08.143Z,14.99
2019-05-09T06:48:38.911Z,16.03
2019-05-09T06:51:08.675Z,17.32
2019-05-09T06:53:38.396Z,18.69
2019-05-09T06:56:08.293Z,18.89
2019-05-09T06:58:39.760Z,17.56
2019-05-09T07:01:18.246Z,16.13
2019-05-09T07:03:57.548Z,16.05
2019-05-09T07:06:31.666Z,14.87
2019-05-09T07:09:03.187Z,13.84
2019-05-09T07:11:33.012Z,13.42
2019-05-09T07:14:02.803Z,13.27
2019-05-09T07:16:32.689Z,13.04
2019-05-09T07:19:02.421Z,13.11
2019-05-09T07:21:49.669Z,13.30
2019-05-09T07:24:20.376Z,13.35
2019-05-09T07:26:50.099Z,13.83
2019-05-09T07:29:20.043Z,13.81
2019-05-09T07:31:51.414Z,13.42
2019-05-09T07:34:22.981Z,13.29
2019-05-09T07:36:52.752Z,13.61
2019-05-09T07:39:22.691Z,13.74
2019-05-09T07:41:52.420Z,14.08
2019-05-09T07:44:22.186Z,13.71
2019-05-09T07:46:59.576Z,13.70
2019-05-09T07:49:30.018Z,13.69
2019-05-09T07:52:06.092Z,13.79
2019-05-09T07:54:31.278Z,13.98
2019-05-09T07:57:01.068Z,14.16
2019-05-09T07:59:30.813Z,14.20
2019-05-09T08:02:00.639Z,14.40
2019-05-09T08:04:30.372Z,14.37
2019-05-09T08:07:00.335Z,14.33
2019-05-09T08:09:30.071Z,14.49
2019-05-09T08:11:59.856Z,14.42
2019-05-09T08:14:29.606Z,14.41
2019-05-09T08:16:59.388Z,14.28
2019-05-09T08:19:29.379Z,14.12
2019-05-09T08:21:59.126Z,14.14
2019-05-09T08:24:28.945Z,14.17
2019-05-09T08:26:58.714Z,14.60
2019-05-09T08:29:28.616Z,14.70
2019-05-09T08:31:58.526Z,14.48
2019-05-09T08:34:28.598Z,14.22
2019-05-09T08:36:58.386Z,14.64
2019-05-09T08:39:28.287Z,14.64
2019-05-09T08:41:59.453Z,14.49
2019-05-09T08:44:31.216Z,14.46
2019-05-09T08:47:01.213Z,14.43
2019-05-09T08:49:41.839Z,14.51
2019-05-09T08:52:16.326Z,14.58
2019-05-09T08:54:48.846Z,14.83
2019-05-09T08:57:18.740Z,15.36
2019-05-09T08:59:50.709Z,15.83
2019-05-09T09:02:22.337Z,15.75
2019-05-09T09:04:51.633Z,15.72
2019-05-09T09:07:21.353Z,15.35
2019-05-09T09:09:51.112Z,15.52
2019-05-09T09:12:30.392Z,15.67
2019-05-09T09:14:52.404Z,15.51
2019-05-09T09:17:22.158Z,15.88
2019-05-09T09:19:51.875Z,15.26
2019-05-09T09:22:22.481Z,15.82
2019-05-09T09:24:52.244Z,15.94
2019-05-09T09:27:22.240Z,15.85
2019-05-09T09:29:52.015Z,15.41
2019-05-09T09:32:21.799Z,15.69
2019-05-09T09:34:51.514Z,15.53
2019-05-09T09:37:21.374Z,15.92
2019-05-09T09:39:51.574Z,16.09
2019-05-09T09:42:21.400Z,16.43
2019-05-09T09:44:51.209Z,16.87
2019-05-09T09:47:23.465Z,16.75
2019-05-09T09:49:55.092Z,16.84
2019-05-09T09:52:24.004Z,17.00
2019-05-09T09:54:53.805Z,16.32
2019-05-09T09:57:23.889Z,16.18
2019-05-09T09:59:55.334Z,16.15
2019-05-09T10:02:27.939Z,16.03
2019-05-09T10:04:57.995Z,15.69
2019-05-09T10:07:28.053Z,15.93
2019-05-09T10:09:58.482Z,16.66
2019-05-09T10:12:29.134Z,16.58
2019-05-09T10:15:19.006Z,17.25
2019-05-09T10:17:58.974Z,16.70
2019-05-09T10:20:30.631Z,17.11
2019-05-09T10:23:11.130Z,17.07
2019-05-09T10:25:31.873Z,17.07
2019-05-09T10:28:01.638Z,16.89
2019-05-09T10:30:34.194Z,16.59
2019-05-09T10:33:04.111Z,17.00
2019-05-09T10:35:33.810Z,17.55
2019-05-09T10:38:03.627Z,17.42
2019-05-09T10:40:33.680Z,17.55
2019-05-09T10:43:08.218Z,17.72
2019-05-09T10:45:45.636Z,17.96
2019-05-09T10:48:15.402Z,18.01
2019-05-09T10:50:47.844Z,18.11
2019-05-09T10:53:17.985Z,17.95
2019-05-09T10:55:48.284Z,18.17
2019-05-09T10:58:20.238Z,18.30
2019-05-09T11:00:49.732Z,17.51
2019-05-09T11:03:20.064Z,17.77
2019-05-09T11:05:49.786Z,17.82
2019-05-09T11:08:20.055Z,18.26
2019-05-09T11:10:49.971Z,18.32
2019-05-09T11:13:20.186Z,18.15
2019-05-09T11:15:50.230Z,17.91
2019-05-09T11:18:20.049Z,18.48
2019-05-09T11:20:49.857Z,18.78
2019-05-09T11:23:19.745Z,18.94
2019-05-09T11:25:49.859Z,19.02
2019-05-09T11:28:19.765Z,18.96
2019-05-09T11:30:49.787Z,18.62
2019-05-09T11:33:19.662Z,18.64
2019-05-09T11:35:49.531Z,17.98
2019-05-09T11:38:32.181Z,17.76
2019-05-09T11:40:51.226Z,17.82
2019-05-09T11:43:21.104Z,17.93
2019-05-09T11:45:51.166Z,17.87
2019-05-09T11:48:21.402Z,17.85
2019-05-09T11:50:51.276Z,18.17
2019-05-09T11:53:21.115Z,18.50
2019-05-09T11:55:50.949Z,18.81
2019-05-09T11:58:20.818Z,18.24
2019-05-09T12:00:50.869Z,18.06
2019-05-09T12:03:20.743Z,18.04
2019-05-09T12:05:50.548Z,17.35
2019-05-09T12:08:20.345Z,16.98
2019-05-09T12:10:50.155Z,17.88
2019-05-09T12:13:21.685Z,18.17
2019-05-09T12:15:51.528Z,18.15
2019-05-09T12:18:21.272Z,18.30
2019-05-09T12:20:51.213Z,18.78
2019-05-09T12:23:21.159Z,18.45
2019-05-09T12:25:51.014Z,18.82
2019-05-09T12:28:21.107Z,19.00
2019-05-09T12:30:50.859Z,19.20
2019-05-09T12:33:20.794Z,19.27
2019-05-09T12:35:50.609Z,19.47
2019-05-09T12:38:20.567Z,19.45
2019-05-09T12:40:50.505Z,19.08
2019-05-09T12:43:20.374Z,18.59
2019-05-09T12:45:50.249Z,18.45
2019-05-09T12:48:20.231Z,18.05
2019-05-09T12:50:49.959Z,17.45
2019-05-09T12:53:22.774Z,18.31
2019-05-09T12:55:54.207Z,18.92
2019-05-09T12:58:29.794Z,19.34
2019-05-09T13:00:59.959Z,19.57
2019-05-09T13:03:30.126Z,19.03
2019-05-09T13:05:59.925Z,19.28
2019-05-09T13:08:30.167Z,19.42
2019-05-09T13:11:02.501Z,18.95
2019-05-09T13:13:32.289Z,18.68
2019-05-09T13:16:14.232Z,19.10
2019-05-09T13:19:02.701Z,19.30
2019-05-09T13:21:33.415Z,19.17
2019-05-09T13:24:03.377Z,18.62
2019-05-09T13:26:33.174Z,19.03
2019-05-09T13:29:03.062Z,19.01
2019-05-09T13:31:34.797Z,18.42
2019-05-09T13:34:04.462Z,18.02
2019-05-09T13:36:34.248Z,18.28
2019-05-09T13:39:08.406Z,18.74
2019-05-09T13:41:38.333Z,19.47
2019-05-09T13:44:13.709Z,19.61
2019-05-09T13:46:40.522Z,19.46
2019-05-09T13:49:14.295Z,19.01
2019-05-09T13:51:48.689Z,18.94
2019-05-09T13:54:13.597Z,18.64
2019-05-09T13:56:43.389Z,18.99
2019-05-09T13:59:13.251Z,18.75
2019-05-09T14:01:44.425Z,18.87
2019-05-09T14:04:14.315Z,19.07
2019-05-09T14:06:44.197Z,19.46
2019-05-09T14:09:14.073Z,19.42
2019-05-09T14:11:43.849Z,19.83
2019-05-09T14:14:13.593Z,19.21
2019-05-09T14:16:43.349Z,19.23
2019-05-09T14:19:39.513Z,19.22
2019-05-09T14:21:47.978Z,19.54
2019-05-09T14:24:19.172Z,19.36
2019-05-09T14:26:48.593Z,19.19
2019-05-09T14:29:20.430Z,18.74
2019-05-09T14:31:49.978Z,18.46
2019-05-09T14:34:19.967Z,18.83
2019-05-09T14:36:49.863Z,18.49
2019-05-09T14:39:19.769Z,18.32
2019-05-09T14:41:49.750Z,17.68
2019-05-09T14:44:19.593Z,16.79
2019-05-09T14:46:52.994Z,16.53
2019-05-09T14:49:22.782Z,16.43
2019-05-09T14:51:52.520Z,16.44
2019-05-09T14:54:22.326Z,16.49
2019-05-09T14:56:53.039Z,16.74
2019-05-09T14:59:22.828Z,16.66
2019-05-09T15:01:52.732Z,16.65
2019-05-09T15:04:22.727Z,16.54
2019-05-09T15:06:52.483Z,16.62
2019-05-09T15:09:22.358Z,16.70
2019-05-09T15:11:52.185Z,16.56
2019-05-09T15:14:22.119Z,16.77
2019-05-09T15:16:51.937Z,16.63
2019-05-09T15:19:21.825Z,17.26
2019-05-09T15:21:51.556Z,17.09
2019-05-09T15:24:21.314Z,17.00
2019-05-09T15:26:51.132Z,17.25
2019-05-09T15:29:20.851Z,17.39
2019-05-09T15:31:54.250Z,17.34
2019-05-09T15:34:22.146Z,17.46
2019-05-09T15:36:52.030Z,17.44
2019-05-09T15:39:21.823Z,17.64
2019-05-09T15:41:52.050Z,17.82
2019-05-09T15:44:23.515Z,18.07
2019-05-09T15:47:18.380Z,18.08
2019-05-09T15:49:49.412Z,18.59
2019-05-09T15:52:19.349Z,18.66
2019-05-09T15:54:49.114Z,18.92
2019-05-09T15:57:18.860Z,18.94
2019-05-09T15:59:48.651Z,18.56
2019-05-09T16:02:19.245Z,18.20
2019-05-09T16:04:49.112Z,18.12
2019-05-09T16:07:18.914Z,17.91
2019-05-09T16:09:48.809Z,17.77
2019-05-09T16:12:18.675Z,17.68
2019-05-09T16:14:48.729Z,17.69
2019-05-09T16:17:19.221Z,17.22
2019-05-09T16:19:49.268Z,17.37
2019-05-09T16:22:19.252Z,17.34
2019-05-09T16:24:48.969Z,17.13
2019-05-09T16:27:18.707Z,16.88
2019-05-09T16:29:48.768Z,17.01
2019-05-09T16:32:18.809Z,16.93
2019-05-09T16:34:48.577Z,16.72
2019-05-09T16:37:18.388Z,16.98
2019-05-09T16:39:48.122Z,17.00
2019-05-09T16:42:18.018Z,17.01
2019-05-09T16:44:48.183Z,17.12
2019-05-09T16:47:21.873Z,16.96
2019-05-09T16:49:50.661Z,16.63
2019-05-09T16:52:20.464Z,16.54
2019-05-09T16:54:51.855Z,16.55
2019-05-09T16:57:21.854Z,16.31
2019-05-09T16:59:51.590Z,16.25
2019-05-09T17:02:24.918Z,16.27
2019-05-09T17:04:53.067Z,16.41
2019-05-09T17:07:22.830Z,16.15
2019-05-09T17:09:52.801Z,16.17
2019-05-09T17:12:22.712Z,16.15
2019-05-09T17:14:52.591Z,16.16
2019-05-09T17:17:22.509Z,16.15
2019-05-09T17:19:52.442Z,16.01
2019-05-09T17:22:24.092Z,15.82
2019-05-09T17:24:53.842Z,15.95
2019-05-09T17:27:23.727Z,15.85
2019-05-09T17:29:53.563Z,15.98
2019-05-09T17:32:23.470Z,16.01
2019-05-09T17:34:53.307Z,15.99
2019-05-09T17:37:23.176Z,16.19
2019-05-09T17:39:53.076Z,15.95
2019-05-09T17:42:22.896Z,15.74
2019-05-09T17:44:52.652Z,15.65
2019-05-09T17:47:22.461Z,15.82
2019-05-09T17:49:52.558Z,15.96
2019-05-09T17:52:22.348Z,16.00
2019-05-09T17:54:52.172Z,16.03
2019-05-09T17:57:22.016Z,16.20
2019-05-09T17:59:51.980Z,16.37
2019-05-09T18:02:22.737Z,16.41
2019-05-09T18:04:52.557Z,16.18
2019-05-09T18:07:22.358Z,16.13
2019-05-09T18:09:52.247Z,16.23
2019-05-09T18:12:22.137Z,16.05
2019-05-09T18:14:52.008Z,16.02
2019-05-09T18:17:21.773Z,15.87
2019-05-09T18:19:51.528Z,15.82
2019-05-09T18:22:21.443Z,15.73
2019-05-09T18:24:51.260Z,15.69
2019-05-09T18:27:21.068Z,15.59
2019-05-09T18:29:50.890Z,15.49
2019-05-09T18:32:34.765Z,15.45
2019-05-09T18:35:16.849Z,15.34
2019-05-09T18:37:48.120Z,15.16
2019-05-09T18:40:18.801Z,15.03
2019-05-09T18:42:48.963Z,15.01
2019-05-09T18:45:19.958Z,14.74
2019-05-09T18:47:50.069Z,14.71
2019-05-09T18:50:19.973Z,14.55
2019-05-09T18:52:49.806Z,14.40
2019-05-09T18:55:20.119Z,14.35
2019-05-09T18:57:50.098Z,14.21
2019-05-09T19:00:21.624Z,14.12
2019-05-09T19:02:51.688Z,14.16
2019-05-09T19:05:21.793Z,14.07
2019-05-09T19:07:51.636Z,14.21
2019-05-09T19:10:21.504Z,14.27
2019-05-09T19:12:51.281Z,14.31
2019-05-09T19:15:34.971Z,14.18
2019-05-09T19:18:23.605Z,14.01
2019-05-09T19:20:57.941Z,13.79
2019-05-09T19:23:27.764Z,13.73
2019-05-09T19:26:00.466Z,13.75
2019-05-09T19:28:31.886Z,13.74
2019-05-09T19:31:06.503Z,13.61
2019-05-09T19:33:36.298Z,13.66
2019-05-09T19:36:06.360Z,13.80
2019-05-09T19:38:37.751Z,13.85
2019-05-09T19:41:07.542Z,13.78
2019-05-09T19:43:37.383Z,13.72
2019-05-09T19:46:10.452Z,13.67
2019-05-09T19:48:40.533Z,13.79
2019-05-09T19:51:10.467Z,13.90
2019-05-09T19:53:40.383Z,13.90
2019-05-09T19:56:10.201Z,13.85
2019-05-09T19:58:40.030Z,13.80
2019-05-09T20:01:09.941Z,13.78
2019-05-09T20:03:39.898Z,13.72
2019-05-09T20:06:09.791Z,13.62
2019-05-09T20:08:39.631Z,13.60
2019-05-09T20:11:23.539Z,13.59
2019-05-09T20:13:57.603Z,13.50
2019-05-09T20:16:33.417Z,13.54
2019-05-09T20:19:05.149Z,13.58
2019-05-09T20:21:36.996Z,13.44
2019-05-09T20:24:09.330Z,13.61
2019-05-09T20:26:41.805Z,13.52
2019-05-09T20:29:12.014Z,13.53
2019-05-09T20:31:43.383Z,13.47
2019-05-09T20:34:13.993Z,13.47
2019-05-09T20:36:44.251Z,13.45
2019-05-09T20:39:16.380Z,13.43
2019-05-09T20:41:50.687Z,13.48
2019-05-09T20:44:22.124Z,13.32
2019-05-09T20:46:52.631Z,13.35
2019-05-09T20:49:30.199Z,13.28
2019-05-09T20:52:02.189Z,13.31
2019-05-09T20:54:34.541Z,13.41
2019-05-09T20:57:08.105Z,13.35
2019-05-09T20:59:43.488Z,13.36
2019-05-09T21:02:15.601Z,13.25
2019-05-09T21:04:48.543Z,13.15
2019-05-09T21:07:19.594Z,13.02
2019-05-09T21:10:03.396Z,12.99
2019-05-09T21:12:36.045Z,13.05
2019-05-09T21:15:09.733Z,12.96
2019-05-09T21:17:43.962Z,12.88
2019-05-09T21:20:15.348Z,12.89
2019-05-09T21:22:45.462Z,12.73
2019-05-09T21:25:15.498Z,12.90
2019-05-09T21:27:48.889Z,12.97
2019-05-09T21:30:22.158Z,12.95
2019-05-09T21:32:53.475Z,12.79
2019-05-09T21:35:23.356Z,12.76
2019-05-09T21:37:56.997Z,12.65
2019-05-09T21:40:26.849Z,12.71
2019-05-09T21:42:58.271Z,12.60
2019-05-09T21:45:29.219Z,12.58
2019-05-09T21:48:00.193Z,12.56
2019-05-09T21:50:31.154Z,12.43
2019-05-09T21:53:01.137Z,12.58
2019-05-09T21:55:30.993Z,12.64
2019-05-09T21:58:01.624Z,12.51
2019-05-09T22:00:35.656Z,12.63
2019-05-09T22:03:07.199Z,12.46
2019-05-09T22:05:37.677Z,12.44
2019-05-09T22:08:07.685Z,12.46
2019-05-09T22:10:37.544Z,12.41
2019-05-09T22:13:07.379Z,12.48
2019-05-09T22:15:37.230Z,12.41
2019-05-09T22:18:06.978Z,12.45
2019-05-09T22:20:36.650Z,12.38
2019-05-09T22:23:06.808Z,12.55
2019-05-09T22:25:36.627Z,12.45
2019-05-09T22:28:06.715Z,12.41
2019-05-09T22:30:36.395Z,12.52
2019-05-09T22:33:06.109Z,12.55
2019-05-09T22:35:35.807Z,12.41
2019-05-09T22:38:05.572Z,12.20
2019-05-09T22:40:35.282Z,12.34
2019-05-09T22:43:05.120Z,12.45
2019-05-09T22:45:35.036Z,12.34
2019-05-09T22:48:05.861Z,12.39
2019-05-09T22:50:35.597Z,12.25
2019-05-09T22:53:05.592Z,12.21
2019-05-09T22:55:37.939Z,12.19
2019-05-09T22:58:07.061Z,11.89
2019-05-09T23:00:37.053Z,11.72
2019-05-09T23:03:06.911Z,11.59
2019-05-09T23:05:36.721Z,11.60
2019-05-09T23:08:06.534Z,11.65
2019-05-09T23:10:36.281Z,11.87
2019-05-09T23:13:06.067Z,12.12
2019-05-09T23:15:38.053Z,11.84
2019-05-09T23:18:07.855Z,11.73
2019-05-09T23:20:47.994Z,11.76
2019-05-09T23:23:22.419Z,11.81
2019-05-09T23:25:52.212Z,11.86
2019-05-09T23:28:22.106Z,11.77
2019-05-09T23:30:53.484Z,11.85
2019-05-09T23:33:24.811Z,11.81
2019-05-09T23:35:54.767Z,11.73
2019-05-09T23:38:24.618Z,11.92
2019-05-09T23:40:54.730Z,11.86
2019-05-09T23:43:24.475Z,11.75
2019-05-09T23:45:54.434Z,11.73
2019-05-09T23:48:55.184Z,11.78
2019-05-09T23:51:26.612Z,11.75
2019-05-09T23:53:55.567Z,11.58
2019-05-09T23:56:43.106Z,11.58
2019-05-09T23:59:30.787Z,11.83
